Kihei, HI

6:30 AM HST on September 21, 2014 (GMT -1000)
RAWS | Change Station
CLOSE
Current Station
Personal Weather Station
Location: Kihei, HI
Elevation: 1149 ft
Nearby Weather Stations

Elev 1149 ft 20.58 °N, 156.57 °W | Updated 49 days ago

Clear
Clear
78 °F
Feels Like 78 °F
N
4
Wind Variable Wind from NE
Gusts 7 mph

Today
High -- | Low -- °F
--% Chance of Precip.
Yesterday
High -- | Low -- °F
Precip. -- in
6:14 AM 6:23 PM
Waning Crescent, 6% visible
Pressure 29.97 in
Visibility 10.0 miles
Clouds Few 4000 ft
Dew Point 64 °F
Humidity 61%
Rainfall 0.00 in
Snow Depth Not available.
UV 0 out of 12
Pollen Not available.
Air Quality Not available.
Flu Activity Not available.
METAR PHOG 211554Z 14006KT 10SM FEW040 23/21 A2995 RMK AO2 SLP148 T02330206 $

More Conditions Fewer Conditions

Pressure 29.97 in
Visibility 10.0 miles
Clouds Few 4000 ft
Dew Point 64 °F
Humidity 61%
Rainfall 0.00 in
Snow Depth Not available.
UV 0 out of 12
Pollen Not available.
Air Quality Not available.
Flu Activity Not available.
METAR PHOG 211554Z 14006KT 10SM FEW040 23/21 A2995 RMK AO2 SLP148 T02330206 $

More Conditions Fewer Conditions

10-Day Weather Forecast

Almanac

Astronomy

Sep. 21, 2014 Rise Set
Actual Time 6:14 AM HST 6:23 PM HST
Civil Twilight 5:52 AM HST 6:45 PM HST
Nautical Twilight 5:27 AM HST 7:11 PM HST
Astronomical Twilight 5:01 AM HST 7:36 PM HST
Moon 4:12 AM HST 4:55 PM HST
Length of Visible Light 12h 52m
Length of Day
12h 08m
Tomorrow will be 1m 10s shorter.
Waning Crescent, 6% of the Moon is Illuminated
Today
Waning Crescent
Sep 24
New
Oct 1
First Quarter
Oct 8
Full
Oct 15
Last Quarter

Today's Extremes

State Highs State Lows

Community

WunderPhotos

Upload Photos

1,755,186 photos uploaded!

Nearby

Snow Depth

Station Depth Elevation
No new snow has been reported.

Earthquake Activity

City Distance Mag. Time & Date
No recent earthquake activity has been reported nearby.
Minimum magnitude displayed is 2.5.

Coastal Water Temperatures

Place Temperature
No Stations Reporting

Nearby Weather Stations